createdAt,value
2022-10-30T00:00:50.023Z,7.53
2022-10-30T00:03:16.559Z,9.07
2022-10-30T00:05:43.979Z,7.70
2022-10-30T00:08:11.136Z,10.63
2022-10-30T00:10:37.373Z,7.35
2022-10-30T00:13:03.657Z,7.53
2022-10-30T00:15:29.884Z,7.68
2022-10-30T00:17:56.478Z,9.38
2022-10-30T00:20:23.040Z,9.13
2022-10-30T00:22:49.323Z,8.07
2022-10-30T00:25:15.715Z,8.60
2022-10-30T00:27:41.941Z,6.60
2022-10-30T00:30:08.512Z,8.02
2022-10-30T00:32:34.749Z,7.63
2022-10-30T00:35:00.988Z,8.48
2022-10-30T00:37:27.236Z,7.78
2022-10-30T00:39:53.479Z,8.88
2022-10-30T00:42:19.750Z,10.30
2022-10-30T00:44:50.086Z,7.38
2022-10-30T00:47:28.100Z,9.65
2022-10-30T00:50:00.627Z,9.35
2022-10-30T00:52:29.867Z,8.82
2022-10-30T00:54:57.405Z,8.07
2022-10-30T00:57:25.381Z,8.48
2022-10-30T00:59:52.038Z,6.70
2022-10-30T01:02:19.863Z,6.97
2022-10-30T01:04:47.059Z,8.30
2022-10-30T01:07:15.608Z,8.75
2022-10-30T01:09:42.132Z,6.78
2022-10-30T01:12:08.374Z,6.85
2022-10-30T01:14:37.092Z,7.68
2022-10-30T01:17:03.298Z,9.23
2022-10-30T01:19:42.539Z,7.07
2022-10-30T01:22:19.393Z,9.80
2022-10-30T01:25:00.930Z,9.45
2022-10-30T01:27:46.207Z,6.00
2022-10-30T01:30:19.750Z,8.75
2022-10-30T01:33:04.818Z,8.75
2022-10-30T01:35:37.454Z,6.88
2022-10-30T01:38:07.762Z,8.88
2022-10-30T01:40:34.018Z,6.50
2022-10-30T01:43:00.426Z,9.75
2022-10-30T01:45:36.974Z,7.65
2022-10-30T01:48:25.849Z,6.38
2022-10-30T01:50:52.064Z,11.23
2022-10-30T01:53:29.889Z,8.00
2022-10-30T01:56:11.627Z,6.82
2022-10-30T01:58:40.977Z,7.43
2022-10-30T02:01:07.718Z,8.00
2022-10-30T02:03:34.031Z,5.95
2022-10-30T02:06:00.747Z,6.07
2022-10-30T02:08:27.363Z,7.85
2022-10-30T02:10:54.097Z,8.55
2022-10-30T02:13:20.768Z,8.95
2022-10-30T02:15:47.982Z,5.40
2022-10-30T02:18:14.321Z,9.07
2022-10-30T02:20:40.724Z,8.15
2022-10-30T02:23:08.767Z,5.97
2022-10-30T02:25:35.477Z,9.77
2022-10-30T02:28:02.119Z,9.98
2022-10-30T02:30:28.574Z,7.07
2022-10-30T02:32:55.004Z,8.07
2022-10-30T02:35:21.491Z,9.15
2022-10-30T02:37:48.779Z,6.72
2022-10-30T02:40:15.088Z,6.82
2022-10-30T02:42:41.387Z,4.78
2022-10-30T02:45:08.064Z,7.95
2022-10-30T02:47:34.368Z,7.97
2022-10-30T02:50:00.648Z,7.25
2022-10-30T02:52:26.910Z,6.47
2022-10-30T02:54:53.136Z,5.45
2022-10-30T02:57:19.357Z,7.03
2022-10-30T02:59:45.618Z,6.43
2022-10-30T03:02:12.918Z,7.45
2022-10-30T03:04:39.196Z,6.85
2022-10-30T03:07:05.530Z,7.55
2022-10-30T03:09:31.783Z,6.93
2022-10-30T03:11:58.116Z,8.77
2022-10-30T03:14:24.396Z,5.72
2022-10-30T03:16:52.481Z,5.85
2022-10-30T03:19:19.300Z,7.70
2022-10-30T03:21:46.050Z,7.07
2022-10-30T03:24:12.359Z,9.38
2022-10-30T03:26:38.594Z,7.65
2022-10-30T03:29:04.946Z,6.88
2022-10-30T03:31:31.933Z,7.43
2022-10-30T03:33:58.357Z,6.53
2022-10-30T03:36:25.402Z,5.80
2022-10-30T03:38:51.694Z,5.68
2022-10-30T03:41:17.953Z,4.78
2022-10-30T03:43:44.198Z,10.25
2022-10-30T03:46:11.324Z,7.47
2022-10-30T03:48:37.586Z,8.45
2022-10-30T03:51:03.908Z,5.93
2022-10-30T03:53:30.229Z,7.97
2022-10-30T03:56:01.097Z,7.40
2022-10-30T03:58:27.990Z,7.90
2022-10-30T04:00:54.535Z,7.45
2022-10-30T04:03:21.226Z,6.85
2022-10-30T04:05:51.055Z,6.72
2022-10-30T04:08:17.839Z,7.15
2022-10-30T04:10:45.023Z,7.93
2022-10-30T04:13:12.390Z,6.13
2022-10-30T04:15:38.753Z,6.45
2022-10-30T04:18:05.259Z,6.35
2022-10-30T04:20:31.653Z,5.03
2022-10-30T04:22:59.451Z,5.55
2022-10-30T04:25:26.135Z,5.78
2022-10-30T04:27:56.389Z,5.80
2022-10-30T04:30:25.054Z,7.75
2022-10-30T04:32:56.093Z,8.90
2022-10-30T04:35:24.027Z,7.82
2022-10-30T04:37:57.892Z,6.30
2022-10-30T04:40:24.883Z,5.85
2022-10-30T04:42:51.412Z,8.55
2022-10-30T04:45:17.968Z,8.30
2022-10-30T04:47:44.335Z,8.05
2022-10-30T04:50:10.921Z,6.28
2022-10-30T04:52:37.493Z,6.70
2022-10-30T04:55:04.273Z,7.45
2022-10-30T04:57:31.719Z,7.78
2022-10-30T04:59:58.665Z,7.32
2022-10-30T05:02:25.365Z,6.90
2022-10-30T05:04:51.782Z,5.65
2022-10-30T05:07:18.278Z,4.72
2022-10-30T05:09:44.501Z,7.07
2022-10-30T05:12:10.845Z,6.80
2022-10-30T05:14:37.319Z,6.90
2022-10-30T05:17:03.576Z,9.13
2022-10-30T05:19:29.864Z,6.55
2022-10-30T05:21:56.109Z,6.40
2022-10-30T05:24:22.355Z,5.93
2022-10-30T05:26:48.615Z,6.72
2022-10-30T05:29:14.911Z,6.68
2022-10-30T05:31:41.238Z,7.95
2022-10-30T05:34:07.784Z,7.22
2022-10-30T05:36:34.134Z,8.35
2022-10-30T05:39:00.503Z,8.30
2022-10-30T05:41:26.743Z,5.07
2022-10-30T05:43:52.979Z,7.43
2022-10-30T05:46:19.277Z,7.95
2022-10-30T05:48:45.636Z,6.82
2022-10-30T05:51:11.954Z,7.53
2022-10-30T05:53:38.200Z,6.97
2022-10-30T05:56:05.911Z,7.32
2022-10-30T05:58:33.192Z,6.90
2022-10-30T06:00:59.515Z,7.20
2022-10-30T06:03:25.812Z,7.38
2022-10-30T06:05:52.084Z,8.23
2022-10-30T06:08:18.415Z,8.45
2022-10-30T06:10:44.847Z,8.00
2022-10-30T06:13:11.761Z,9.35
2022-10-30T06:15:38.154Z,6.95
2022-10-30T06:18:04.516Z,5.45
2022-10-30T06:20:31.108Z,6.90
2022-10-30T06:22:57.378Z,9.57
2022-10-30T06:25:23.788Z,6.05
2022-10-30T06:27:50.368Z,7.57
2022-10-30T06:30:17.043Z,6.88
2022-10-30T06:32:43.284Z,5.75
2022-10-30T06:35:10.740Z,9.30
2022-10-30T06:37:39.147Z,5.38
2022-10-30T06:40:07.031Z,8.20
2022-10-30T06:42:33.307Z,8.18
2022-10-30T06:44:59.613Z,7.55
2022-10-30T06:47:25.862Z,5.90
2022-10-30T06:49:52.149Z,5.68
2022-10-30T06:52:24.177Z,4.78
2022-10-30T06:54:50.724Z,5.38
2022-10-30T06:57:17.146Z,7.30
2022-10-30T06:59:43.443Z,6.75
2022-10-30T07:02:11.349Z,7.57
2022-10-30T07:04:37.776Z,6.75
2022-10-30T07:07:05.427Z,6.93
2022-10-30T07:09:31.973Z,6.80
2022-10-30T07:12:02.690Z,6.82
2022-10-30T07:14:32.098Z,6.82
2022-10-30T07:16:58.414Z,6.65
2022-10-30T07:19:24.701Z,5.88
2022-10-30T07:21:51.027Z,7.70
2022-10-30T07:24:17.345Z,5.65
2022-10-30T07:26:43.607Z,7.85
2022-10-30T07:29:09.888Z,6.38
2022-10-30T07:31:42.400Z,5.00
2022-10-30T07:34:24.257Z,5.30
2022-10-30T07:36:50.577Z,5.47
2022-10-30T07:39:16.913Z,6.75
2022-10-30T07:41:49.751Z,8.20
2022-10-30T07:44:16.747Z,6.35
2022-10-30T07:46:43.000Z,6.05
2022-10-30T07:49:09.270Z,5.40
2022-10-30T07:51:35.508Z,6.78
2022-10-30T07:54:01.944Z,5.80
2022-10-30T07:56:30.697Z,6.75
2022-10-30T07:58:56.971Z,6.25
2022-10-30T08:01:23.288Z,6.85
2022-10-30T08:03:49.726Z,6.82
2022-10-30T08:06:15.993Z,7.22
2022-10-30T08:08:43.539Z,7.10
2022-10-30T08:11:10.106Z,6.05
2022-10-30T08:13:36.369Z,6.68
2022-10-30T08:16:03.056Z,5.55
2022-10-30T08:18:29.366Z,7.15
2022-10-30T08:20:55.633Z,9.80
2022-10-30T08:23:23.078Z,6.05
2022-10-30T08:25:49.457Z,5.95
2022-10-30T08:28:16.006Z,7.65
2022-10-30T08:30:42.436Z,7.88
2022-10-30T08:33:11.464Z,8.45
2022-10-30T08:35:37.779Z,9.45
2022-10-30T08:38:04.068Z,7.13
2022-10-30T08:40:30.287Z,9.45
2022-10-30T08:42:57.268Z,7.82
2022-10-30T08:45:29.724Z,7.95
2022-10-30T08:48:01.930Z,9.23
2022-10-30T08:50:28.699Z,8.73
2022-10-30T08:52:55.062Z,6.82
2022-10-30T08:55:21.338Z,7.93
2022-10-30T08:57:47.658Z,10.70
2022-10-30T09:00:14.177Z,8.23
2022-10-30T09:02:40.574Z,7.22
2022-10-30T09:05:07.680Z,7.80
2022-10-30T09:07:33.956Z,8.98
2022-10-30T09:10:01.067Z,7.53
2022-10-30T09:12:27.329Z,8.48
2022-10-30T09:14:53.603Z,7.90
2022-10-30T09:17:19.879Z,7.65
2022-10-30T09:22:12.474Z,6.82
2022-10-30T09:24:39.964Z,8.52
2022-10-30T09:27:06.806Z,9.38
2022-10-30T09:29:33.108Z,6.80
2022-10-30T09:31:59.953Z,8.25
2022-10-30T09:36:55.034Z,6.43
2022-10-30T09:39:21.276Z,7.95
2022-10-30T09:42:00.166Z,7.57
2022-10-30T09:44:38.465Z,9.10
2022-10-30T09:47:11.677Z,7.97
2022-10-30T09:49:50.361Z,6.85
2022-10-30T09:52:28.530Z,8.70
2022-10-30T09:55:08.887Z,7.65
2022-10-30T09:57:38.311Z,7.57
2022-10-30T10:00:12.693Z,10.00
2022-10-30T10:02:58.588Z,9.02
2022-10-30T10:05:28.258Z,8.60
2022-10-30T10:07:57.726Z,7.55
2022-10-30T10:10:38.575Z,11.18
2022-10-30T10:13:05.703Z,5.53
2022-10-30T10:15:49.592Z,9.85
2022-10-30T10:18:22.985Z,8.85
2022-10-30T10:20:51.611Z,7.75
2022-10-30T10:23:19.169Z,8.43
2022-10-30T10:25:51.053Z,9.60
2022-10-30T10:28:37.600Z,8.85
2022-10-30T10:31:16.946Z,8.07
2022-10-30T10:33:59.138Z,8.27
2022-10-30T10:36:44.287Z,6.45
2022-10-30T10:39:13.939Z,8.40
2022-10-30T10:41:55.977Z,8.07
2022-10-30T10:44:42.833Z,8.70
2022-10-30T10:47:27.954Z,9.15
2022-10-30T10:50:03.108Z,8.13
2022-10-30T10:52:41.139Z,7.53
2022-10-30T10:55:14.319Z,8.20
2022-10-30T10:57:41.470Z,7.88
2022-10-30T11:00:10.854Z,9.32
2022-10-30T11:02:37.165Z,8.32
2022-10-30T11:05:26.933Z,5.75
2022-10-30T11:07:54.108Z,9.63
2022-10-30T11:10:21.375Z,6.85
2022-10-30T11:12:47.637Z,7.20
2022-10-30T11:15:19.955Z,7.45
2022-10-30T11:17:52.399Z,7.80
2022-10-30T11:20:21.015Z,10.57
2022-10-30T11:22:50.128Z,11.32
2022-10-30T11:25:18.856Z,8.88
2022-10-30T11:27:46.478Z,9.55
2022-10-30T11:30:23.742Z,11.10
2022-10-30T11:32:50.668Z,10.77
2022-10-30T11:35:18.342Z,9.70
2022-10-30T11:37:45.332Z,11.55
2022-10-30T11:40:11.610Z,11.02
2022-10-30T11:42:46.857Z,7.78
2022-10-30T11:45:15.620Z,9.40
2022-10-30T11:47:42.087Z,9.15
2022-10-30T11:50:17.128Z,11.27
2022-10-30T11:52:44.167Z,9.48
2022-10-30T11:55:14.206Z,9.25
2022-10-30T11:57:48.918Z,11.93
2022-10-30T12:00:20.482Z,9.85
2022-10-30T12:02:48.375Z,7.75
2022-10-30T12:05:23.460Z,9.70
2022-10-30T12:07:49.923Z,10.43
2022-10-30T12:10:39.464Z,10.13
2022-10-30T12:13:06.413Z,12.57
2022-10-30T12:15:37.295Z,9.48
2022-10-30T12:18:05.422Z,10.63
2022-10-30T12:20:32.930Z,10.20
2022-10-30T12:23:08.539Z,10.13
2022-10-30T12:25:35.187Z,11.63
2022-10-30T12:28:05.986Z,7.68
2022-10-30T12:30:35.331Z,10.05
2022-10-30T12:33:01.830Z,9.82
2022-10-30T12:35:49.430Z,10.23
2022-10-30T12:38:20.490Z,7.85
2022-10-30T12:40:53.331Z,6.95
2022-10-30T12:43:21.278Z,9.18
2022-10-30T12:45:48.864Z,11.20
2022-10-30T12:48:27.440Z,9.20
2022-10-30T12:51:15.915Z,7.45
2022-10-30T12:53:49.102Z,11.05
2022-10-30T12:56:18.595Z,9.10
2022-10-30T12:58:56.473Z,12.05
2022-10-30T13:01:43.701Z,11.45
2022-10-30T13:04:10.058Z,8.90
2022-10-30T13:06:44.946Z,7.95
2022-10-30T13:09:30.095Z,9.82
2022-10-30T13:12:03.758Z,7.55
2022-10-30T13:14:35.002Z,9.00
2022-10-30T13:17:01.278Z,12.38
2022-10-30T13:19:28.170Z,8.27
2022-10-30T13:22:05.504Z,9.60
2022-10-30T13:24:49.135Z,9.27
2022-10-30T13:27:41.951Z,8.23
2022-10-30T13:30:14.349Z,9.32
2022-10-30T13:32:49.734Z,9.43
2022-10-30T13:35:33.261Z,7.82
2022-10-30T13:38:18.246Z,9.80
2022-10-30T13:40:46.533Z,6.53
2022-10-30T13:43:42.781Z,8.43
2022-10-30T13:46:28.532Z,7.47
2022-10-30T13:49:13.596Z,6.18
2022-10-30T13:51:42.364Z,8.30
2022-10-30T13:54:12.016Z,10.77
2022-10-30T13:56:39.396Z,9.20
2022-10-30T13:59:29.027Z,7.85
2022-10-30T14:02:02.032Z,8.35
2022-10-30T14:04:58.206Z,7.82
2022-10-30T14:07:24.451Z,10.30
2022-10-30T14:10:01.325Z,8.90
2022-10-30T14:12:46.492Z,6.03
2022-10-30T14:15:24.423Z,9.43
2022-10-30T14:18:09.554Z,6.55
2022-10-30T14:20:35.843Z,8.00
2022-10-30T14:23:12.177Z,5.82
2022-10-30T14:25:38.630Z,6.97
2022-10-30T14:28:05.433Z,7.45
2022-10-30T14:30:33.913Z,9.02
2022-10-30T14:33:00.177Z,8.73
2022-10-30T14:35:34.169Z,6.25
2022-10-30T14:38:06.575Z,10.70
2022-10-30T14:40:36.016Z,8.55
2022-10-30T14:43:06.188Z,7.20
2022-10-30T14:45:44.910Z,8.02
2022-10-30T14:48:24.167Z,9.98
2022-10-30T14:51:12.970Z,7.10
2022-10-30T14:53:49.320Z,7.20
2022-10-30T14:56:21.876Z,7.43
2022-10-30T14:59:07.029Z,8.85
2022-10-30T15:01:36.850Z,7.78
2022-10-30T15:04:19.545Z,10.45
2022-10-30T15:06:48.778Z,6.40
2022-10-30T15:09:34.076Z,7.95
2022-10-30T15:12:22.722Z,5.30
2022-10-30T15:14:59.499Z,5.63
2022-10-30T15:17:31.957Z,5.45
2022-10-30T15:20:02.184Z,9.95
2022-10-30T15:22:29.388Z,7.65
2022-10-30T15:24:55.806Z,6.10
2022-10-30T15:27:23.163Z,6.93
2022-10-30T15:29:56.705Z,7.45
2022-10-30T15:32:24.261Z,10.68
2022-10-30T15:34:59.835Z,9.30
2022-10-30T15:37:26.919Z,10.93
2022-10-30T15:40:13.410Z,6.10
2022-10-30T15:42:40.217Z,8.00
2022-10-30T15:45:11.608Z,7.85
2022-10-30T15:47:45.621Z,9.77
2022-10-30T15:50:12.108Z,5.85
2022-10-30T15:52:40.975Z,9.82
2022-10-30T15:55:08.892Z,7.53
2022-10-30T15:58:01.593Z,8.30
2022-10-30T16:00:25.345Z,7.72
2022-10-30T16:03:04.105Z,8.88
2022-10-30T16:05:30.980Z,7.65
2022-10-30T16:07:57.975Z,5.10
2022-10-30T16:10:25.818Z,7.15
2022-10-30T16:12:55.429Z,8.07
2022-10-30T16:15:30.781Z,7.75
2022-10-30T16:18:08.033Z,7.67
2022-10-30T16:20:35.440Z,6.57
2022-10-30T16:23:02.551Z,7.63
2022-10-30T16:25:29.165Z,7.20
2022-10-30T16:27:55.494Z,7.60
2022-10-30T16:30:23.763Z,10.45
2022-10-30T16:32:54.591Z,19.27
2022-10-30T16:35:22.761Z,21.02
2022-10-30T16:37:50.555Z,16.17
2022-10-30T16:40:23.496Z,16.08
2022-10-30T16:43:00.869Z,13.18
2022-10-30T16:45:33.908Z,13.98
2022-10-30T16:48:13.507Z,12.60
2022-10-30T16:50:39.828Z,13.40
2022-10-30T16:53:07.234Z,10.45
2022-10-30T16:55:34.755Z,12.52
2022-10-30T16:58:01.121Z,11.32
2022-10-30T17:00:30.545Z,11.98
2022-10-30T17:02:59.745Z,11.23
2022-10-30T17:05:27.779Z,11.15
2022-10-30T17:08:04.487Z,11.77
2022-10-30T17:10:57.513Z,10.98
2022-10-30T17:13:37.697Z,10.00
2022-10-30T17:16:13.285Z,11.20
2022-10-30T17:18:39.544Z,12.63
2022-10-30T17:21:08.291Z,9.55
2022-10-30T17:23:35.433Z,8.55
2022-10-30T17:26:09.308Z,11.38
2022-10-30T17:28:36.496Z,11.30
2022-10-30T17:31:28.879Z,8.55
2022-10-30T17:34:10.879Z,8.75
2022-10-30T17:36:37.161Z,13.77
2022-10-30T17:39:03.795Z,17.38
2022-10-30T17:41:30.164Z,10.95
2022-10-30T17:43:56.502Z,11.15
2022-10-30T17:46:23.190Z,14.10
2022-10-30T17:48:49.899Z,11.40
2022-10-30T17:51:17.024Z,12.63
2022-10-30T17:53:43.692Z,13.90
2022-10-30T17:56:16.204Z,14.15
2022-10-30T17:58:42.503Z,14.02
2022-10-30T18:01:14.235Z,14.43
2022-10-30T18:03:40.598Z,12.18
2022-10-30T18:06:07.075Z,14.43
2022-10-30T18:08:33.870Z,16.60
2022-10-30T18:11:00.152Z,15.13
2022-10-30T18:13:26.380Z,15.27
2022-10-30T18:16:02.020Z,13.68
2022-10-30T18:18:28.332Z,15.02
2022-10-30T18:20:54.610Z,15.88
2022-10-30T18:26:16.877Z,19.35
2022-10-30T18:28:43.274Z,18.13
2022-10-30T18:31:11.883Z,19.67
2022-10-30T18:33:38.224Z,22.10
2022-10-30T18:36:06.558Z,19.15
2022-10-30T18:38:32.832Z,19.52
2022-10-30T18:40:59.473Z,21.48
2022-10-30T18:43:25.723Z,25.55
2022-10-30T18:45:52.221Z,25.27
2022-10-30T18:48:18.481Z,21.70
2022-10-30T18:50:44.923Z,22.85
2022-10-30T18:53:16.203Z,28.27
2022-10-30T18:55:42.612Z,28.80
2022-10-30T18:58:09.835Z,23.38
2022-10-30T19:00:51.307Z,26.80
2022-10-30T19:03:23.140Z,27.90
2022-10-30T19:05:51.097Z,28.08
2022-10-30T19:08:17.341Z,31.42
2022-10-30T19:10:44.774Z,29.45
2022-10-30T19:13:29.309Z,31.35
2022-10-30T19:16:00.433Z,25.58
2022-10-30T19:18:28.347Z,31.73
2022-10-30T19:21:15.505Z,28.77
2022-10-30T19:23:41.040Z,29.92
2022-10-30T19:26:07.359Z,28.92
2022-10-30T19:28:33.660Z,28.85
2022-10-30T19:31:00.111Z,28.00
2022-10-30T19:33:26.454Z,28.17
2022-10-30T19:35:53.909Z,28.63
2022-10-30T19:38:20.284Z,27.77
2022-10-30T19:40:46.513Z,26.17
2022-10-30T19:43:12.812Z,31.40
2022-10-30T19:45:39.156Z,27.63
2022-10-30T19:48:14.393Z,27.30
2022-10-30T19:50:41.222Z,27.15
2022-10-30T19:53:07.606Z,28.30
2022-10-30T19:55:35.146Z,28.70
2022-10-30T19:58:02.131Z,31.92
2022-10-30T20:00:29.760Z,29.95
2022-10-30T20:02:56.911Z,25.00
2022-10-30T20:05:24.394Z,28.50
2022-10-30T20:08:01.595Z,30.42
2022-10-30T20:10:29.123Z,24.35
2022-10-30T20:12:56.824Z,27.35
2022-10-30T20:15:23.815Z,28.00
2022-10-30T20:17:50.301Z,30.15
2022-10-30T20:20:18.676Z,28.48
2022-10-30T20:22:44.958Z,24.90
2022-10-30T20:25:11.270Z,27.40
2022-10-30T20:27:38.295Z,29.20
2022-10-30T20:30:05.386Z,29.40
2022-10-30T20:32:31.675Z,27.50
2022-10-30T20:34:58.020Z,31.63
2022-10-30T20:37:24.367Z,26.23
2022-10-30T20:39:53.538Z,26.60
2022-10-30T20:42:21.487Z,25.92
2022-10-30T20:44:47.802Z,26.48
2022-10-30T20:47:14.242Z,27.45
2022-10-30T20:49:40.520Z,26.80
2022-10-30T20:52:06.800Z,25.95
2022-10-30T20:54:33.090Z,27.00
2022-10-30T20:56:59.408Z,28.27
2022-10-30T20:59:25.733Z,27.05
2022-10-30T21:01:52.096Z,22.52
2022-10-30T21:04:18.443Z,23.15
2022-10-30T21:06:44.852Z,26.05
2022-10-30T21:09:11.158Z,24.45
2022-10-30T21:11:37.430Z,21.63
2022-10-30T21:14:03.670Z,23.67
2022-10-30T21:16:29.946Z,25.17
2022-10-30T21:18:56.173Z,25.02
2022-10-30T21:21:25.585Z,29.42
2022-10-30T21:23:55.603Z,24.73
2022-10-30T21:26:21.859Z,24.70
2022-10-30T21:28:48.123Z,18.45
2022-10-30T21:31:14.658Z,24.45
2022-10-30T21:33:40.942Z,26.33
2022-10-30T21:36:12.352Z,22.67
2022-10-30T21:38:39.343Z,22.73
2022-10-30T21:41:05.930Z,21.73
2022-10-30T21:43:32.203Z,23.83
2022-10-30T21:45:58.467Z,24.88
2022-10-30T21:48:28.137Z,23.48
2022-10-30T21:50:54.367Z,23.73
2022-10-30T21:53:23.162Z,23.70
2022-10-30T21:55:51.712Z,22.20
2022-10-30T21:58:17.980Z,21.88
2022-10-30T22:00:44.693Z,26.20
2022-10-30T22:03:10.956Z,21.85
2022-10-30T22:05:37.211Z,21.20
2022-10-30T22:08:03.504Z,23.83
2022-10-30T22:10:29.736Z,22.27
2022-10-30T22:12:55.977Z,18.42
2022-10-30T22:15:22.224Z,20.50
2022-10-30T22:17:48.503Z,22.88
2022-10-30T22:20:14.951Z,20.92
2022-10-30T22:22:41.189Z,20.73
2022-10-30T22:25:07.562Z,20.05
2022-10-30T22:27:33.888Z,21.15
2022-10-30T22:30:00.156Z,20.17
2022-10-30T22:32:26.673Z,17.75
2022-10-30T22:34:52.964Z,18.55
2022-10-30T22:37:19.278Z,21.83
2022-10-30T22:39:45.521Z,17.15
2022-10-30T22:42:11.818Z,17.52
2022-10-30T22:44:38.027Z,19.90
2022-10-30T22:47:04.263Z,22.38
2022-10-30T22:49:30.513Z,20.38
2022-10-30T22:51:56.803Z,18.42
2022-10-30T22:54:23.058Z,21.02
2022-10-30T22:56:49.373Z,18.75
2022-10-30T22:59:15.638Z,16.45
2022-10-30T23:01:42.396Z,17.58
2022-10-30T23:04:10.262Z,18.13
2022-10-30T23:06:37.365Z,16.02
2022-10-30T23:09:05.186Z,19.42
2022-10-30T23:11:31.581Z,17.20
2022-10-30T23:13:58.066Z,19.30
2022-10-30T23:16:25.172Z,18.23
2022-10-30T23:18:51.803Z,14.05
2022-10-30T23:21:19.241Z,19.40
2022-10-30T23:23:45.774Z,18.38
2022-10-30T23:26:15.057Z,17.80
2022-10-30T23:28:41.870Z,16.83
2022-10-30T23:31:25.429Z,18.05
2022-10-30T23:33:53.068Z,17.85
2022-10-30T23:36:19.701Z,17.38
2022-10-30T23:38:51.146Z,15.48
2022-10-30T23:41:17.414Z,17.25
2022-10-30T23:43:43.705Z,15.45
2022-10-30T23:46:09.987Z,21.17
2022-10-30T23:48:36.311Z,16.10
2022-10-30T23:51:09.071Z,16.83
2022-10-30T23:53:35.677Z,18.15
2022-10-30T23:56:03.017Z,12.73
2022-10-30T23:58:29.304Z,15.75
